createdAt,value
2023-04-19T00:01:23.414Z,102943.38
2023-04-19T00:04:08.940Z,102941.75
2023-04-19T00:06:46.377Z,102949.09
2023-04-19T00:09:13.194Z,102944.38
2023-04-19T00:11:52.241Z,102937.84
2023-04-19T00:14:21.213Z,102938.84
2023-04-19T00:16:48.058Z,102947.56
2023-04-19T00:19:14.845Z,102937.91
2023-04-19T00:21:43.614Z,102940.09
2023-04-19T00:24:13.161Z,102941.75
2023-04-19T00:26:41.443Z,102941.56
2023-04-19T00:29:08.543Z,102941.75
2023-04-19T00:31:35.514Z,102938.31
2023-04-19T00:34:02.286Z,102939.94
2023-04-19T00:36:32.440Z,102941.75
2023-04-19T00:38:59.086Z,102930.03
2023-04-19T00:41:31.903Z,102938.09
2023-04-19T00:43:58.691Z,102934.56
2023-04-19T00:46:26.258Z,102924.09
2023-04-19T00:48:55.082Z,102919.38
2023-04-19T00:51:21.981Z,102927.63
2023-04-19T00:53:49.575Z,102929.72
2023-04-19T00:56:20.845Z,102915.28
2023-04-19T00:58:51.891Z,102915.47
2023-04-19T01:01:21.703Z,102928.03
2023-04-19T01:03:51.146Z,102918.22
2023-04-19T01:06:21.000Z,102922.31
2023-04-19T01:08:48.411Z,102913.78
2023-04-19T01:11:17.449Z,102907.88
2023-04-19T01:13:52.676Z,102913.13
2023-04-19T01:16:21.633Z,102911.31
2023-04-19T01:18:52.228Z,102917.88
2023-04-19T01:21:25.421Z,102909.97
2023-04-19T01:23:52.465Z,102910.63
2023-04-19T01:26:21.643Z,102921.59
2023-04-19T01:28:49.684Z,102922.88
2023-04-19T01:31:18.674Z,102919.44
2023-04-19T01:33:47.871Z,102915.81
2023-04-19T01:36:14.760Z,102904.75
2023-04-19T01:38:51.398Z,102904.41
2023-04-19T01:41:27.322Z,102904.41
2023-04-19T01:43:56.313Z,102918.03
2023-04-19T01:46:23.155Z,102911.59
2023-04-19T01:51:47.830Z,102903.50
2023-04-19T01:54:14.605Z,102900.69
2023-04-19T01:56:42.918Z,102909.41
2023-04-19T01:59:12.062Z,102906.59
2023-04-19T02:01:57.935Z,102914.16
2023-04-19T02:04:24.834Z,102905.44
2023-04-19T02:06:51.660Z,102902.97
2023-04-19T02:09:19.642Z,102907.72
2023-04-19T02:11:46.410Z,102902.91
2023-04-19T02:14:19.552Z,102910.97
2023-04-19T02:16:50.191Z,102915.69
2023-04-19T02:19:19.086Z,102896.81
2023-04-19T02:21:51.991Z,102898.47
2023-04-19T02:24:20.126Z,102907.81
2023-04-19T02:26:46.710Z,102906.81
2023-04-19T02:29:16.989Z,102904.78
2023-04-19T02:31:46.491Z,102901.97
2023-04-19T02:34:13.568Z,102906.88
2023-04-19T02:36:43.905Z,102909.34
2023-04-19T02:39:13.008Z,102902.44
2023-04-19T02:41:49.219Z,102915.88
2023-04-19T02:44:18.632Z,102917.50
2023-04-19T02:47:08.768Z,102905.97
2023-04-19T02:49:42.733Z,102908.44
2023-04-19T02:52:12.139Z,102915.34
2023-04-19T02:54:38.779Z,102909.59
2023-04-19T02:57:16.499Z,102909.25
2023-04-19T02:59:46.626Z,102910.06
2023-04-19T03:02:17.800Z,102908.63
2023-04-19T03:04:55.996Z,102900.72
2023-04-19T03:07:41.940Z,102901.72
2023-04-19T03:10:14.450Z,102915.16
2023-04-19T03:12:41.132Z,102907.91
2023-04-19T03:15:08.664Z,102905.91
2023-04-19T03:17:45.071Z,102895.72
2023-04-19T03:20:12.169Z,102914.44
2023-04-19T03:22:38.999Z,102898.34
2023-04-19T03:25:06.987Z,102901.44
2023-04-19T03:27:36.773Z,102901.81
2023-04-19T03:30:10.138Z,102901.63
2023-04-19T03:32:39.326Z,102902.25
2023-04-19T03:35:15.131Z,102904.53
2023-04-19T03:37:44.372Z,102895.00
2023-04-19T03:40:11.376Z,102882.84
2023-04-19T03:42:38.023Z,102898.28
2023-04-19T03:45:05.488Z,102895.19
2023-04-19T03:47:32.342Z,102901.91
2023-04-19T03:50:00.481Z,102907.00
2023-04-19T03:53:02.778Z,102890.91
2023-04-19T03:55:29.546Z,102896.38
2023-04-19T03:58:00.638Z,102895.28
2023-04-19T04:00:47.204Z,102891.63
2023-04-19T04:03:16.311Z,102894.81
2023-04-19T04:05:51.916Z,102889.28
2023-04-19T04:08:25.778Z,102897.53
2023-04-19T04:11:12.625Z,102897.88
2023-04-19T04:13:47.287Z,102903.97
2023-04-19T04:16:15.837Z,102895.47
2023-04-19T04:18:44.070Z,102886.47
2023-04-19T04:21:11.835Z,102888.47
2023-04-19T04:23:47.485Z,102894.72
2023-04-19T04:26:20.159Z,102906.25
2023-04-19T04:29:27.165Z,102894.97
2023-04-19T04:32:04.990Z,102894.81
2023-04-19T04:34:39.300Z,102899.97
2023-04-19T04:37:08.988Z,102904.03
2023-04-19T04:39:40.369Z,102898.50
2023-04-19T04:42:10.377Z,102892.25
2023-04-19T04:44:38.565Z,102898.22
2023-04-19T04:47:10.029Z,102905.94
2023-04-19T04:49:38.897Z,102899.56
2023-04-19T04:52:30.287Z,102890.56
2023-04-19T04:55:18.396Z,102908.00
2023-04-19T04:57:46.576Z,102908.63
2023-04-19T05:00:15.253Z,102905.34
2023-04-19T05:02:42.175Z,102904.91
2023-04-19T05:05:11.427Z,102901.63
2023-04-19T05:07:44.148Z,102914.25
2023-04-19T05:10:25.542Z,102904.91
2023-04-19T05:12:58.027Z,102915.22
2023-04-19T05:15:36.995Z,102908.16
2023-04-19T05:18:11.762Z,102916.34
2023-04-19T05:20:39.881Z,102919.78
2023-04-19T05:23:29.086Z,102914.41
2023-04-19T05:25:55.860Z,102919.69
2023-04-19T05:28:24.742Z,102920.97
2023-04-19T05:31:01.901Z,102916.69
2023-04-19T05:33:43.227Z,102920.06
2023-04-19T05:36:17.921Z,102921.66
2023-04-19T05:39:00.291Z,102926.56
2023-04-19T05:41:30.890Z,102907.09
2023-04-19T05:43:59.738Z,102921.66
2023-04-19T05:46:28.737Z,102919.50
2023-04-19T05:48:59.929Z,102922.66
2023-04-19T05:51:28.317Z,102913.34
2023-04-19T05:54:00.530Z,102913.78
2023-04-19T05:56:37.193Z,102917.94
2023-04-19T05:59:06.652Z,102914.22
2023-04-19T06:01:33.399Z,102920.38
2023-04-19T06:04:00.423Z,102924.31
2023-04-19T06:06:28.854Z,102913.50
2023-04-19T06:11:51.549Z,102920.91
2023-04-19T06:14:19.014Z,102913.19
2023-04-19T06:17:02.452Z,102908.88
2023-04-19T06:19:34.026Z,102915.59
2023-04-19T06:22:03.097Z,102919.09
2023-04-19T06:24:37.014Z,102920.56
2023-04-19T06:27:18.404Z,102920.06
2023-04-19T06:30:05.200Z,102924.00
2023-04-19T06:32:48.289Z,102920.50
2023-04-19T06:35:42.697Z,102924.63
2023-04-19T06:38:11.829Z,102929.97
2023-04-19T06:40:50.931Z,102922.09
2023-04-19T06:43:17.576Z,102926.59
2023-04-19T06:45:44.132Z,102922.56
2023-04-19T06:48:10.738Z,102921.69
2023-04-19T06:50:50.107Z,102936.16
2023-04-19T06:53:31.546Z,102912.94
2023-04-19T06:56:04.537Z,102915.25
2023-04-19T06:58:39.541Z,102926.25
2023-04-19T07:01:06.444Z,102918.72
2023-04-19T07:04:04.372Z,102924.78
2023-04-19T07:06:21.152Z,102914.50
2023-04-19T07:08:51.825Z,102922.09
2023-04-19T07:11:24.056Z,102927.13
2023-04-19T07:14:20.688Z,102932.94
2023-04-19T07:17:05.390Z,102918.66
2023-04-19T07:19:46.216Z,102918.25
2023-04-19T07:22:56.731Z,102930.94
2023-04-19T07:25:47.149Z,102943.97
2023-04-19T07:28:21.645Z,102920.34
2023-04-19T07:31:09.660Z,102937.44
2023-04-19T07:34:06.652Z,102936.41
2023-04-19T07:36:41.818Z,102920.69
2023-04-19T07:39:19.662Z,102916.84
2023-04-19T07:41:48.733Z,102925.09
2023-04-19T07:44:25.024Z,102931.75
2023-04-19T07:46:55.866Z,102928.03
2023-04-19T07:49:30.549Z,102932.66
2023-04-19T07:52:09.263Z,102922.47
2023-04-19T07:54:45.730Z,102919.88
2023-04-19T07:57:14.920Z,102928.72
2023-04-19T07:59:49.187Z,102924.50
2023-04-19T08:18:12.112Z,102925.84
2023-04-19T08:20:47.199Z,102927.41
2023-04-19T08:23:22.780Z,102921.53
2023-04-19T08:25:53.815Z,102922.53
2023-04-19T08:28:20.403Z,102921.69
2023-04-19T08:30:47.052Z,102931.56
2023-04-19T08:33:13.738Z,102921.88
2023-04-19T08:35:42.040Z,102932.81
2023-04-19T08:38:09.631Z,102929.53
2023-04-19T08:40:52.098Z,102918.50
2023-04-19T08:43:22.576Z,102918.09
2023-04-19T08:45:51.106Z,102916.03
2023-04-19T08:48:18.770Z,102914.44
2023-04-19T08:50:56.486Z,102918.97
2023-04-19T08:53:31.276Z,102912.66
2023-04-19T08:58:46.441Z,102917.53
2023-04-19T09:01:31.047Z,102918.97
2023-04-19T09:04:10.362Z,102899.75
2023-04-19T09:06:43.682Z,102909.72
2023-04-19T09:11:54.976Z,102906.00
2023-04-19T09:14:23.148Z,102908.25
2023-04-19T09:16:52.178Z,102910.09
2023-04-19T09:19:24.380Z,102907.19
2023-04-19T09:21:53.926Z,102910.97
2023-04-19T09:25:13.867Z,102899.94
2023-04-19T09:27:31.180Z,102904.03
2023-04-19T09:30:02.305Z,102896.72
2023-04-19T09:32:30.130Z,102905.28
2023-04-19T09:35:00.530Z,102883.88
2023-04-19T09:39:56.975Z,102902.16
2023-04-19T09:42:42.301Z,102896.72
2023-04-19T09:47:40.012Z,102890.81
2023-04-19T09:50:21.844Z,102887.34
2023-04-19T09:52:52.409Z,102884.91
2023-04-19T09:55:26.716Z,102884.19
2023-04-19T09:57:55.427Z,102907.47
2023-04-19T10:00:25.607Z,102884.25
2023-04-19T10:02:58.294Z,102886.19
2023-04-19T10:05:26.072Z,102883.31
2023-04-19T10:07:59.667Z,102882.59
2023-04-19T10:10:41.413Z,102881.56
2023-04-19T10:13:19.612Z,102872.94
2023-04-19T10:15:52.533Z,102874.91
2023-04-19T10:18:21.402Z,102872.88
2023-04-19T10:20:55.488Z,102863.41
2023-04-19T10:23:23.018Z,102884.09
2023-04-19T10:25:49.824Z,102876.16
2023-04-19T10:28:16.952Z,102866.91
2023-04-19T10:31:01.802Z,102867.06
2023-04-19T10:33:35.902Z,102861.66
2023-04-19T10:36:02.720Z,102859.94
2023-04-19T10:38:36.807Z,102845.59
2023-04-19T10:41:05.463Z,102867.53
2023-04-19T10:43:35.032Z,102852.84
2023-04-19T10:46:14.831Z,102852.56
2023-04-19T10:48:55.404Z,102863.78
2023-04-19T10:52:10.885Z,102866.91
2023-04-19T10:54:41.661Z,102849.06
2023-04-19T10:57:10.318Z,102845.69
2023-04-19T11:00:01.239Z,102855.06
2023-04-19T11:02:29.885Z,102828.84
2023-04-19T11:05:04.422Z,102832.97
2023-04-19T11:07:43.805Z,102841.06
2023-04-19T11:10:28.561Z,102844.09
2023-04-19T11:13:12.953Z,102835.34
2023-04-19T11:15:44.645Z,102825.22
2023-04-19T11:18:18.980Z,102814.41
2023-04-19T11:20:45.725Z,102822.75
2023-04-19T11:23:17.900Z,102799.22
2023-04-19T11:25:47.741Z,102811.22
2023-04-19T11:28:21.805Z,102806.97
2023-04-19T11:30:49.960Z,102802.94
2023-04-19T11:33:24.694Z,102786.78
2023-04-19T11:35:54.440Z,102789.78
2023-04-19T11:38:21.091Z,102801.13
2023-04-19T11:40:49.882Z,102783.03
2023-04-19T11:43:26.255Z,102785.16
2023-04-19T11:45:59.411Z,102795.78
2023-04-19T11:48:26.280Z,102780.75
2023-04-19T11:50:58.767Z,102780.78
2023-04-19T11:53:38.388Z,102781.19
2023-04-19T11:56:15.595Z,102767.38
2023-04-19T11:58:51.461Z,102756.00
2023-04-19T12:01:23.612Z,102751.03
2023-04-19T12:03:56.883Z,102755.91
2023-04-19T12:06:40.040Z,102770.19
2023-04-19T12:09:11.768Z,102764.31
2023-04-19T12:11:52.493Z,102755.06
2023-04-19T12:14:23.409Z,102763.63
2023-04-19T12:17:15.929Z,102763.31
2023-04-19T12:19:54.123Z,102766.44
2023-04-19T12:22:24.059Z,102755.91
2023-04-19T12:25:02.615Z,102756.38
2023-04-19T12:27:34.797Z,102754.25
2023-04-19T12:30:19.984Z,102742.03
2023-04-19T12:32:59.444Z,102743.53
2023-04-19T12:35:27.661Z,102733.13
2023-04-19T12:38:07.430Z,102726.44
2023-04-19T12:40:35.464Z,102741.72
2023-04-19T12:43:08.581Z,102736.03
2023-04-19T12:45:38.290Z,102716.16
2023-04-19T12:48:08.191Z,102743.81
2023-04-19T12:50:35.022Z,102726.66
2023-04-19T12:53:01.624Z,102726.53
2023-04-19T12:55:28.386Z,102721.09
2023-04-19T12:57:55.296Z,102706.28
2023-04-19T13:00:24.920Z,102712.09
2023-04-19T13:02:51.709Z,102716.72
2023-04-19T13:05:32.569Z,102714.38
2023-04-19T13:08:01.617Z,102716.38
2023-04-19T13:10:30.511Z,102712.53
2023-04-19T13:13:05.753Z,102695.97
2023-04-19T13:15:32.400Z,102685.56
2023-04-19T13:18:05.244Z,102681.88
2023-04-19T13:20:35.557Z,102680.38
2023-04-19T13:23:09.547Z,102682.00
2023-04-19T13:25:37.716Z,102659.06
2023-04-19T13:28:10.973Z,102671.69
2023-04-19T13:30:37.792Z,102672.41
2023-04-19T13:33:08.205Z,102665.09
2023-04-19T13:35:35.574Z,102650.28
2023-04-19T13:38:25.367Z,102649.50
2023-04-19T13:40:54.669Z,102663.59
2023-04-19T13:43:24.823Z,102643.81
2023-04-19T13:45:51.625Z,102641.38
2023-04-19T13:48:19.204Z,102634.09
2023-04-19T13:50:52.391Z,102630.63
2023-04-19T13:53:19.062Z,102627.84
2023-04-19T13:55:49.850Z,102629.69
2023-04-19T13:58:19.615Z,102629.34
2023-04-19T14:00:49.136Z,102619.66
2023-04-19T14:03:16.069Z,102616.41
2023-04-19T14:05:43.002Z,102607.72
2023-04-19T14:08:24.514Z,102611.44
2023-04-19T14:11:04.827Z,102607.16
2023-04-19T14:13:31.592Z,102603.47
2023-04-19T14:16:00.410Z,102594.19
2023-04-19T14:18:27.119Z,102596.97
2023-04-19T14:21:14.268Z,102600.66
2023-04-19T14:23:40.965Z,102588.88
2023-04-19T14:26:09.901Z,102585.53
2023-04-19T14:28:46.029Z,102574.53
2023-04-19T14:31:16.159Z,102576.63
2023-04-19T14:33:42.849Z,102572.81
2023-04-19T14:36:09.561Z,102576.63
2023-04-19T14:38:36.282Z,102564.38
2023-04-19T14:41:03.554Z,102552.13
2023-04-19T14:43:33.725Z,102564.13
2023-04-19T14:46:00.538Z,102550.31
2023-04-19T14:48:27.252Z,102567.06
2023-04-19T14:50:53.926Z,102552.50
2023-04-19T14:53:20.597Z,102557.81
2023-04-19T14:55:47.169Z,102546.38
2023-04-19T14:58:13.822Z,102571.56
2023-04-19T15:00:40.978Z,102529.84
2023-04-19T15:03:07.990Z,102539.56
2023-04-19T15:05:36.722Z,102543.81
2023-04-19T15:08:03.456Z,102532.25
2023-04-19T15:10:30.209Z,102519.44
2023-04-19T15:12:59.069Z,102534.81
2023-04-19T15:15:31.026Z,102539.91
2023-04-19T15:17:57.989Z,102519.47
2023-04-19T15:20:24.811Z,102511.25
2023-04-19T15:22:54.232Z,102533.91
2023-04-19T15:25:26.220Z,102514.72
2023-04-19T15:28:09.811Z,102527.22
2023-04-19T15:30:36.484Z,102517.63
2023-04-19T15:33:03.186Z,102514.94
2023-04-19T15:35:34.861Z,102520.84
2023-04-19T15:38:02.967Z,102512.53
2023-04-19T15:40:30.141Z,102516.44
2023-04-19T15:42:59.154Z,102512.06
2023-04-19T15:45:26.139Z,102514.84
2023-04-19T15:47:57.698Z,102512.06
2023-04-19T15:50:27.923Z,102505.72
2023-04-19T15:52:54.656Z,102504.78
2023-04-19T15:55:21.488Z,102507.31
2023-04-19T15:57:51.218Z,102498.88
2023-04-19T16:00:20.441Z,102518.63
2023-04-19T16:02:48.161Z,102523.34
2023-04-19T16:05:37.785Z,102517.84
2023-04-19T16:08:06.909Z,102506.78
2023-04-19T16:10:33.709Z,102505.50
2023-04-19T16:13:04.215Z,102504.72
2023-04-19T16:15:31.151Z,102509.56
2023-04-19T16:17:57.828Z,102498.50
2023-04-19T16:20:25.457Z,102505.81
2023-04-19T16:22:52.400Z,102503.00
2023-04-19T16:25:20.493Z,102486.22
2023-04-19T16:27:54.386Z,102494.53
2023-04-19T16:30:22.290Z,102506.19
2023-04-19T16:32:49.518Z,102495.69
2023-04-19T16:35:18.319Z,102494.53
2023-04-19T16:37:45.077Z,102489.91
2023-04-19T16:40:15.696Z,102508.34
2023-04-19T16:42:42.405Z,102499.34
2023-04-19T16:45:09.780Z,102494.03
2023-04-19T16:47:46.953Z,102493.81
2023-04-19T16:50:22.176Z,102497.38
2023-04-19T16:52:51.097Z,102493.31
2023-04-19T16:55:22.307Z,102492.97
2023-04-19T16:57:53.709Z,102494.22
2023-04-19T17:00:20.963Z,102497.09
2023-04-19T17:02:48.118Z,102484.75
2023-04-19T17:05:16.118Z,102482.91
2023-04-19T17:07:45.529Z,102481.38
2023-04-19T17:10:15.917Z,102487.97
2023-04-19T17:12:46.966Z,102488.84
2023-04-19T17:15:18.336Z,102487.47
2023-04-19T17:17:46.650Z,102482.38
2023-04-19T17:20:16.737Z,102471.41
2023-04-19T17:22:43.419Z,102477.50
2023-04-19T17:25:13.718Z,102486.13
2023-04-19T17:27:43.351Z,102471.94
2023-04-19T17:30:14.521Z,102471.13
2023-04-19T17:32:41.469Z,102478.84
2023-04-19T17:35:15.799Z,102472.47
2023-04-19T17:37:43.713Z,102469.91
2023-04-19T17:40:11.098Z,102479.91
2023-04-19T17:42:44.328Z,102479.78
2023-04-19T17:45:19.123Z,102472.84
2023-04-19T17:47:46.398Z,102478.00
2023-04-19T17:50:27.720Z,102469.78
2023-04-19T17:52:57.359Z,102471.50
2023-04-19T17:55:27.538Z,102485.34
2023-04-19T17:57:54.330Z,102461.03
2023-04-19T18:00:21.059Z,102467.97
2023-04-19T18:02:50.665Z,102469.56
2023-04-19T18:05:17.903Z,102479.59
2023-04-19T18:07:44.551Z,102471.09
2023-04-19T18:10:13.402Z,102467.53
2023-04-19T18:12:44.603Z,102473.03
2023-04-19T18:15:12.818Z,102472.34
2023-04-19T18:17:39.609Z,102477.91
2023-04-19T18:20:13.105Z,102475.69
2023-04-19T18:22:43.184Z,102475.91
2023-04-19T18:25:10.113Z,102481.88
2023-04-19T18:27:37.064Z,102473.75
2023-04-19T18:30:07.803Z,102490.88
2023-04-19T18:32:35.629Z,102488.53
2023-04-19T18:35:04.485Z,102496.47
2023-04-19T18:37:31.254Z,102500.34
2023-04-19T18:39:57.918Z,102494.31
2023-04-19T18:42:28.018Z,102493.75
2023-04-19T18:44:57.228Z,102499.47
2023-04-19T18:47:27.678Z,102508.03
2023-04-19T18:52:24.328Z,102508.91
2023-04-19T18:54:56.248Z,102518.31
2023-04-19T18:57:24.343Z,102508.63
2023-04-19T18:59:56.026Z,102509.53
2023-04-19T19:02:22.802Z,102510.13
2023-04-19T19:04:57.150Z,102525.00
2023-04-19T19:10:04.029Z,102520.38
2023-04-19T19:12:42.763Z,102533.56
2023-04-19T19:15:09.958Z,102525.84
2023-04-19T19:17:36.661Z,102528.28
2023-04-19T19:20:05.220Z,102532.75
2023-04-19T19:22:32.100Z,102538.25
2023-04-19T19:24:58.877Z,102540.69
2023-04-19T19:27:25.602Z,102543.94
2023-04-19T19:29:52.305Z,102547.63
2023-04-19T19:32:21.404Z,102549.66
2023-04-19T19:37:19.816Z,102549.63
2023-04-19T19:39:48.631Z,102558.78
2023-04-19T19:42:18.667Z,102561.41
2023-04-19T19:44:45.548Z,102566.47
2023-04-19T19:47:13.220Z,102564.00
2023-04-19T19:49:57.524Z,102572.97
2023-04-19T19:52:31.842Z,102577.41
2023-04-19T19:54:59.394Z,102577.84
2023-04-19T19:59:56.907Z,102576.63
2023-04-19T20:02:26.645Z,102579.28
2023-04-19T20:04:53.723Z,102577.84
2023-04-19T20:09:52.440Z,102587.38
2023-04-19T20:12:19.283Z,102593.06
2023-04-19T20:14:45.985Z,102599.56
2023-04-19T20:17:14.873Z,102602.00
2023-04-19T20:23:26.409Z,102607.06
2023-04-19T20:25:52.826Z,102602.38
2023-04-19T20:28:21.783Z,102611.91
2023-04-19T20:33:52.631Z,102626.50
2023-04-19T20:36:47.365Z,102620.41
2023-04-19T20:40:18.990Z,102610.19
2023-04-19T20:42:10.691Z,102608.94
2023-04-19T20:44:48.898Z,102610.97
2023-04-19T20:47:43.057Z,102611.34
2023-04-19T20:50:23.465Z,102611.75
2023-04-19T20:52:59.735Z,102612.34
2023-04-19T20:57:08.229Z,102624.88
2023-04-19T20:59:05.962Z,102619.19
2023-04-19T21:02:07.508Z,102614.69
2023-04-19T21:04:32.800Z,102620.56
2023-04-19T21:07:01.021Z,102610.41
2023-04-19T21:09:37.133Z,102612.63
2023-04-19T21:12:04.213Z,102615.03
2023-04-19T21:14:33.523Z,102609.34
2023-04-19T21:17:38.575Z,102608.28
2023-04-19T21:21:01.145Z,102612.13
2023-04-19T21:23:27.724Z,102615.13
2023-04-19T21:26:54.370Z,102617.34
2023-04-19T21:28:55.119Z,102609.38
2023-04-19T21:31:33.364Z,102613.44
2023-04-19T21:34:19.786Z,102610.38
2023-04-19T21:37:14.449Z,102610.56
2023-04-19T21:40:05.020Z,102616.41
2023-04-19T21:43:03.412Z,102612.50
2023-04-19T21:46:18.116Z,102609.69
2023-04-19T21:48:53.600Z,102606.56
2023-04-19T21:51:33.589Z,102604.50
2023-04-19T21:54:26.624Z,102596.38
2023-04-19T21:57:11.162Z,102593.88
2023-04-19T21:59:55.042Z,102594.88
2023-04-19T22:02:39.588Z,102593.88
2023-04-19T22:05:36.574Z,102596.44
2023-04-19T22:08:25.836Z,102601.47
2023-04-19T22:10:53.027Z,102595.75
2023-04-19T22:13:22.127Z,102595.13
2023-04-19T22:15:58.833Z,102607.66
2023-04-19T22:18:41.582Z,102605.56
2023-04-19T22:21:26.435Z,102611.00
2023-04-19T22:24:13.162Z,102605.69
2023-04-19T22:26:53.388Z,102597.34
2023-04-19T22:29:41.819Z,102601.97
2023-04-19T22:32:23.333Z,102601.91
2023-04-19T22:35:07.741Z,102609.78
2023-04-19T22:37:41.043Z,102605.81
2023-04-19T22:40:16.158Z,102599.09
2023-04-19T22:42:52.069Z,102595.78
2023-04-19T22:45:44.339Z,102597.66
2023-04-19T22:51:23.361Z,102597.50
2023-04-19T22:54:46.069Z,102597.41
2023-04-19T22:57:37.152Z,102602.94
2023-04-19T23:00:21.907Z,102600.06
2023-04-19T23:03:00.186Z,102604.94
2023-04-19T23:09:21.155Z,102615.38
2023-04-19T23:11:53.424Z,102590.66
2023-04-19T23:14:26.154Z,102591.31
2023-04-19T23:17:20.594Z,102588.84
2023-04-19T23:20:21.145Z,102590.84
2023-04-19T23:23:04.448Z,102585.97
2023-04-19T23:25:57.633Z,102584.41
2023-04-19T23:28:50.960Z,102583.59
2023-04-19T23:31:40.735Z,102582.34
2023-04-19T23:34:14.496Z,102578.16
2023-04-19T23:36:45.989Z,102570.38
2023-04-19T23:39:36.819Z,102569.38
2023-04-19T23:42:12.288Z,102563.59
2023-04-19T23:44:54.128Z,102562.13
2023-04-19T23:47:39.537Z,102561.69
2023-04-19T23:50:58.962Z,102555.50
2023-04-19T23:53:28.247Z,102552.59
2023-04-19T23:56:01.548Z,102547.41
2023-04-19T23:58:37.829Z,102553.50
